createdAt,value
2019-06-01T00:00:12.299Z,18.52
2019-06-01T00:01:05.714Z,18.46
2019-06-01T00:01:59.100Z,18.45
2019-06-01T00:02:56.688Z,18.41
2019-06-01T00:03:48.841Z,18.40
2019-06-01T00:04:42.986Z,18.36
2019-06-01T00:05:38.387Z,18.32
2019-06-01T00:06:32.104Z,18.32
2019-06-01T00:07:26.089Z,18.31
2019-06-01T00:08:20.308Z,18.28
2019-06-01T00:09:15.085Z,18.24
2019-06-01T00:10:09.088Z,18.23
2019-06-01T00:11:03.486Z,18.24
2019-06-01T00:11:57.196Z,18.20
2019-06-01T00:12:52.510Z,18.20
2019-06-01T00:13:47.579Z,18.16
2019-06-01T00:14:43.646Z,18.20
2019-06-01T00:15:38.311Z,18.20
2019-06-01T00:16:32.181Z,18.19
2019-06-01T00:17:26.502Z,18.19
2019-06-01T00:18:20.886Z,18.14
2019-06-01T00:19:16.543Z,18.12
2019-06-01T00:20:11.015Z,18.08
2019-06-01T00:21:04.977Z,18.06
2019-06-01T00:21:59.751Z,18.05
2019-06-01T00:22:53.359Z,18.05
2019-06-01T00:23:48.677Z,18.03
2019-06-01T00:24:43.823Z,18.05
2019-06-01T00:25:38.568Z,18.01
2019-06-01T00:26:32.854Z,17.95
2019-06-01T00:27:28.131Z,17.95
2019-06-01T00:28:21.891Z,17.95
2019-06-01T00:29:16.405Z,17.96
2019-06-01T00:30:10.064Z,17.99
2019-06-01T00:31:04.344Z,17.96
2019-06-01T00:31:58.412Z,17.94
2019-06-01T00:32:53.010Z,17.94
2019-06-01T00:33:47.598Z,17.88
2019-06-01T00:34:45.721Z,17.85
2019-06-01T00:35:41.221Z,17.93
2019-06-01T00:36:35.634Z,17.88
2019-06-01T00:37:29.766Z,17.90
2019-06-01T00:38:24.766Z,17.83
2019-06-01T00:39:18.310Z,17.80
2019-06-01T00:40:13.561Z,17.91
2019-06-01T00:41:07.462Z,17.81
2019-06-01T00:42:02.249Z,17.79
2019-06-01T00:42:55.803Z,17.72
2019-06-01T00:43:50.514Z,17.73
2019-06-01T00:44:44.368Z,17.68
2019-06-01T00:45:38.878Z,17.69
2019-06-01T00:46:32.985Z,17.67
2019-06-01T00:47:27.628Z,17.62
2019-06-01T00:48:21.330Z,17.61
2019-06-01T00:49:15.636Z,17.61
2019-06-01T00:50:09.511Z,17.63
2019-06-01T00:51:03.800Z,17.62
2019-06-01T00:51:57.208Z,17.67
2019-06-01T00:52:54.584Z,17.69
2019-06-01T00:53:49.568Z,17.68
2019-06-01T00:54:45.247Z,17.62
2019-06-01T00:55:38.714Z,17.55
2019-06-01T00:56:32.869Z,17.56
2019-06-01T00:57:27.312Z,17.58
2019-06-01T00:58:21.837Z,17.58
2019-06-01T00:59:15.476Z,17.54
2019-06-01T01:00:10.172Z,17.53
2019-06-01T01:01:03.846Z,17.51
2019-06-01T01:01:58.214Z,17.45
2019-06-01T01:02:52.276Z,17.46
2019-06-01T01:03:48.113Z,17.46
2019-06-01T01:04:44.171Z,17.45
2019-06-01T01:05:38.993Z,17.41
2019-06-01T01:06:32.950Z,17.37
2019-06-01T01:07:27.988Z,17.35
2019-06-01T01:08:21.607Z,17.35
2019-06-01T01:09:16.093Z,17.42
2019-06-01T01:10:10.100Z,17.44
2019-06-01T01:11:04.410Z,17.44
2019-06-01T01:11:59.248Z,17.40
2019-06-01T01:13:15.421Z,17.44
2019-06-01T01:14:09.891Z,17.40
2019-06-01T01:15:05.161Z,17.44
2019-06-01T01:15:59.152Z,17.43
2019-06-01T01:16:54.160Z,17.43
2019-06-01T01:17:48.109Z,17.38
2019-06-01T01:18:42.827Z,17.36
2019-06-01T01:19:37.147Z,17.42
2019-06-01T01:20:31.078Z,17.39
2019-06-01T01:21:24.768Z,17.41
2019-06-01T01:22:19.440Z,17.34
2019-06-01T01:23:13.922Z,17.37
2019-06-01T01:24:08.651Z,17.34
2019-06-01T01:25:03.487Z,17.31
2019-06-01T01:25:57.733Z,17.27
2019-06-01T01:26:52.527Z,17.26
2019-06-01T01:27:46.562Z,17.32
2019-06-01T01:28:41.963Z,17.31
2019-06-01T01:29:36.028Z,17.36
2019-06-01T01:30:29.755Z,17.42
2019-06-01T01:31:23.779Z,17.38
2019-06-01T01:32:17.455Z,17.34
2019-06-01T01:33:12.099Z,17.31
2019-06-01T01:34:05.990Z,17.32
2019-06-01T01:35:00.578Z,17.34
2019-06-01T01:35:54.286Z,17.30
2019-06-01T01:36:49.701Z,17.26
2019-06-01T01:37:43.741Z,17.22
2019-06-01T01:38:37.809Z,17.19
2019-06-01T01:39:32.267Z,17.19
2019-06-01T01:40:26.135Z,17.20
2019-06-01T01:41:19.594Z,17.20
2019-06-01T01:42:13.534Z,17.20
2019-06-01T01:43:07.518Z,17.21
2019-06-01T01:44:01.752Z,17.22
2019-06-01T01:44:54.707Z,17.21
2019-06-01T01:45:48.906Z,17.17
2019-06-01T01:46:42.544Z,17.17
2019-06-01T01:47:36.329Z,17.17
2019-06-01T01:48:30.172Z,17.14
2019-06-01T01:49:23.836Z,17.18
2019-06-01T01:50:18.436Z,17.13
2019-06-01T01:51:11.920Z,17.10
2019-06-01T01:52:05.707Z,17.08
2019-06-01T01:52:59.664Z,17.08
2019-06-01T01:53:54.605Z,17.05
2019-06-01T01:54:48.371Z,17.01
2019-06-01T01:55:41.614Z,17.00
2019-06-01T01:56:36.044Z,17.02
2019-06-01T01:57:29.225Z,16.98
2019-06-01T01:58:23.157Z,16.99
2019-06-01T01:59:16.160Z,16.95
2019-06-01T02:00:13.041Z,17.04
2019-06-01T02:01:21.580Z,17.06
2019-06-01T02:02:01.313Z,16.99
2019-06-01T02:02:55.794Z,16.95
2019-06-01T02:03:51.334Z,16.91
2019-06-01T02:04:44.485Z,16.89
2019-06-01T02:05:39.324Z,16.95
2019-06-01T02:06:32.056Z,16.92
2019-06-01T02:07:25.921Z,16.92
2019-06-01T02:08:18.752Z,16.91
2019-06-01T02:09:13.142Z,16.88
2019-06-01T02:10:07.142Z,16.87
2019-06-01T02:11:01.823Z,16.84
2019-06-01T02:11:55.466Z,16.82
2019-06-01T02:12:49.789Z,16.83
2019-06-01T02:13:43.788Z,16.85
2019-06-01T02:14:37.104Z,16.85
2019-06-01T02:15:30.765Z,16.80
2019-06-01T02:16:24.355Z,16.78
2019-06-01T02:17:17.945Z,16.77
2019-06-01T02:18:12.563Z,16.75
2019-06-01T02:19:06.117Z,16.77
2019-06-01T02:20:00.277Z,16.83
2019-06-01T02:20:54.370Z,16.86
2019-06-01T02:21:48.624Z,16.86
2019-06-01T02:22:41.396Z,16.85
2019-06-01T02:23:35.098Z,16.85
2019-06-01T02:24:27.886Z,16.87
2019-06-01T02:25:21.392Z,16.89
2019-06-01T02:26:15.083Z,16.88
2019-06-01T02:27:08.663Z,16.87
2019-06-01T02:28:01.805Z,16.87
2019-06-01T02:28:55.356Z,16.89
2019-06-01T02:29:49.208Z,16.90
2019-06-01T02:30:42.754Z,16.88
2019-06-01T02:31:42.072Z,16.89
2019-06-01T02:32:32.244Z,16.85
2019-06-01T02:33:25.241Z,16.84
2019-06-01T02:34:18.406Z,16.91
2019-06-01T02:35:11.160Z,16.87
2019-06-01T02:36:05.339Z,16.83
2019-06-01T02:37:00.211Z,16.85
2019-06-01T02:37:54.706Z,16.82
2019-06-01T02:38:48.901Z,16.79
2019-06-01T02:39:43.352Z,16.79
2019-06-01T02:40:36.761Z,16.87
2019-06-01T02:41:30.513Z,16.77
2019-06-01T02:42:23.388Z,16.78
2019-06-01T02:43:18.025Z,16.69
2019-06-01T02:44:11.166Z,16.63
2019-06-01T02:45:05.741Z,16.57
2019-06-01T02:46:00.494Z,16.58
2019-06-01T02:46:55.377Z,16.53
2019-06-01T02:47:48.950Z,16.50
2019-06-01T02:48:42.223Z,16.49
2019-06-01T02:49:36.740Z,16.49
2019-06-01T02:50:30.380Z,16.47
2019-06-01T02:51:24.521Z,16.48
2019-06-01T02:52:18.309Z,16.47
2019-06-01T02:53:11.486Z,16.47
2019-06-01T02:54:06.412Z,16.47
2019-06-01T02:54:59.813Z,16.49
2019-06-01T02:55:54.305Z,16.46
2019-06-01T02:56:48.034Z,16.46
2019-06-01T02:57:42.051Z,16.45
2019-06-01T02:58:35.121Z,16.44
2019-06-01T02:59:29.235Z,16.40
2019-06-01T03:01:12.398Z,16.38
2019-06-01T03:02:10.637Z,16.36
2019-06-01T03:03:02.668Z,16.39
2019-06-01T03:03:57.643Z,16.39
2019-06-01T03:04:51.167Z,16.40
2019-06-01T03:05:47.016Z,16.44
2019-06-01T03:06:44.317Z,16.45
2019-06-01T03:07:42.775Z,16.49
2019-06-01T03:08:37.618Z,16.46
2019-06-01T03:09:33.103Z,16.51
2019-06-01T03:10:27.750Z,16.54
2019-06-01T03:11:23.048Z,16.60
2019-06-01T03:12:19.681Z,16.61
2019-06-01T03:13:15.887Z,16.64
2019-06-01T03:14:11.068Z,16.63
2019-06-01T03:15:08.585Z,16.62
2019-06-01T03:16:03.444Z,16.58
2019-06-01T03:17:01.912Z,16.58
2019-06-01T03:17:59.370Z,16.64
2019-06-01T03:18:55.624Z,16.61
2019-06-01T03:19:50.890Z,16.60
2019-06-01T03:20:47.387Z,16.64
2019-06-01T03:21:42.095Z,16.74
2019-06-01T03:22:37.516Z,16.75
2019-06-01T03:23:33.777Z,16.69
2019-06-01T03:24:27.498Z,16.67
2019-06-01T03:25:21.434Z,16.78
2019-06-01T03:26:18.166Z,16.80
2019-06-01T03:27:15.364Z,16.76
2019-06-01T03:28:12.506Z,16.74
2019-06-01T03:29:07.287Z,16.74
2019-06-01T03:30:05.300Z,16.69
2019-06-01T03:30:56.917Z,16.80
2019-06-01T03:31:51.232Z,16.80
2019-06-01T03:32:44.097Z,16.68
2019-06-01T03:33:38.136Z,16.67
2019-06-01T03:34:31.999Z,16.68
2019-06-01T03:35:25.910Z,16.66
2019-06-01T03:36:20.140Z,16.61
2019-06-01T03:37:14.389Z,16.60
2019-06-01T03:38:09.262Z,16.57
2019-06-01T03:39:04.006Z,16.57
2019-06-01T03:39:57.192Z,16.60
2019-06-01T03:40:51.320Z,16.71
2019-06-01T03:41:45.363Z,16.70
2019-06-01T03:42:40.812Z,16.72
2019-06-01T03:43:33.832Z,16.69
2019-06-01T03:44:28.520Z,16.63
2019-06-01T03:45:21.636Z,16.61
2019-06-01T03:46:16.598Z,16.62
2019-06-01T03:47:11.666Z,16.59
2019-06-01T03:48:06.725Z,16.57
2019-06-01T03:48:59.816Z,16.58
2019-06-01T03:49:53.806Z,16.62
2019-06-01T03:50:47.455Z,16.61
2019-06-01T03:51:41.620Z,16.63
2019-06-01T03:52:35.000Z,16.57
2019-06-01T03:53:28.819Z,16.54
2019-06-01T03:54:22.110Z,16.53
2019-06-01T03:55:16.707Z,16.52
2019-06-01T03:56:11.049Z,16.47
2019-06-01T03:57:05.407Z,16.44
2019-06-01T03:57:59.065Z,16.41
2019-06-01T03:58:52.997Z,16.41
2019-06-01T03:59:47.090Z,16.40
2019-06-01T04:00:41.870Z,16.37
2019-06-01T04:01:35.706Z,16.38
2019-06-01T04:02:33.094Z,16.33
2019-06-01T04:03:25.305Z,16.26
2019-06-01T04:04:19.825Z,16.25
2019-06-01T04:05:13.662Z,16.24
2019-06-01T04:06:09.334Z,16.22
2019-06-01T04:07:03.425Z,16.21
2019-06-01T04:07:58.195Z,16.24
2019-06-01T04:08:51.160Z,16.38
2019-06-01T04:09:46.027Z,16.36
2019-06-01T04:10:40.117Z,16.38
2019-06-01T04:11:35.178Z,16.40
2019-06-01T04:12:28.629Z,16.43
2019-06-01T04:13:22.627Z,16.46
2019-06-01T04:14:15.839Z,16.40
2019-06-01T04:15:13.627Z,16.38
2019-06-01T04:16:05.833Z,16.50
2019-06-01T04:17:01.880Z,16.51
2019-06-01T04:17:56.437Z,16.47
2019-06-01T04:18:51.193Z,16.58
2019-06-01T04:19:43.821Z,16.51
2019-06-01T04:20:38.483Z,16.57
2019-06-01T04:21:31.992Z,16.53
2019-06-01T04:22:27.052Z,16.49
2019-06-01T04:23:20.862Z,16.47
2019-06-01T04:24:14.810Z,16.47
2019-06-01T04:25:10.319Z,16.45
2019-06-01T04:26:04.157Z,16.53
2019-06-01T04:26:57.286Z,16.63
2019-06-01T04:27:50.979Z,16.66
2019-06-01T04:28:44.368Z,16.62
2019-06-01T04:29:38.400Z,16.64
2019-06-01T04:30:31.780Z,16.81
2019-06-01T04:31:26.157Z,16.84
2019-06-01T04:32:18.957Z,16.75
2019-06-01T04:33:13.997Z,16.74
2019-06-01T04:34:07.374Z,16.68
2019-06-01T04:35:03.144Z,16.67
2019-06-01T04:35:56.333Z,16.65
2019-06-01T04:36:50.225Z,16.68
2019-06-01T04:37:43.642Z,16.69
2019-06-01T04:38:37.644Z,16.66
2019-06-01T04:39:31.097Z,16.65
2019-06-01T04:40:25.128Z,16.67
2019-06-01T04:41:18.564Z,16.65
2019-06-01T04:42:13.938Z,16.62
2019-06-01T04:43:07.863Z,16.64
2019-06-01T04:44:03.781Z,16.64
2019-06-01T04:44:57.223Z,16.72
2019-06-01T04:45:51.188Z,16.74
2019-06-01T04:46:44.655Z,16.82
2019-06-01T04:47:38.921Z,16.78
2019-06-01T04:48:31.924Z,16.81
2019-06-01T04:49:26.278Z,16.82
2019-06-01T04:50:19.507Z,16.99
2019-06-01T04:51:13.554Z,17.00
2019-06-01T04:52:06.843Z,17.06
2019-06-01T04:53:01.089Z,17.02
2019-06-01T04:53:54.235Z,17.03
2019-06-01T04:54:48.929Z,16.95
2019-06-01T04:55:42.777Z,16.88
2019-06-01T04:56:37.065Z,16.84
2019-06-01T04:57:30.732Z,16.86
2019-06-01T04:58:24.288Z,16.80
2019-06-01T04:59:17.987Z,16.82
2019-06-01T05:00:25.947Z,16.81
2019-06-01T05:01:09.006Z,16.84
2019-06-01T05:02:03.368Z,16.85
2019-06-01T05:03:04.751Z,16.89
2019-06-01T05:03:52.210Z,16.90
2019-06-01T05:04:45.630Z,16.96
2019-06-01T05:05:39.606Z,16.95
2019-06-01T05:06:32.992Z,17.13
2019-06-01T05:07:26.597Z,17.23
2019-06-01T05:08:19.297Z,17.20
2019-06-01T05:09:13.413Z,17.15
2019-06-01T05:10:07.423Z,17.19
2019-06-01T05:11:05.045Z,17.13
2019-06-01T05:11:57.098Z,17.10
2019-06-01T05:12:51.613Z,17.18
2019-06-01T05:13:44.884Z,17.28
2019-06-01T05:14:38.987Z,17.36
2019-06-01T05:15:31.921Z,17.29
2019-06-01T05:16:26.048Z,17.26
2019-06-01T05:17:19.515Z,17.28
2019-06-01T05:18:14.253Z,17.33
2019-06-01T05:19:08.222Z,17.41
2019-06-01T05:20:02.166Z,17.39
2019-06-01T05:20:56.218Z,17.35
2019-06-01T05:21:49.790Z,17.41
2019-06-01T05:22:43.014Z,17.41
2019-06-01T05:23:37.605Z,17.31
2019-06-01T05:24:30.932Z,17.31
2019-06-01T05:25:24.583Z,17.37
2019-06-01T05:26:18.712Z,17.29
2019-06-01T05:27:13.144Z,17.37
2019-06-01T05:28:07.035Z,17.34
2019-06-01T05:29:01.048Z,17.23
2019-06-01T05:29:54.082Z,17.27
2019-06-01T05:30:48.583Z,17.26
2019-06-01T05:31:42.036Z,17.35
2019-06-01T05:32:36.393Z,17.40
2019-06-01T05:33:37.445Z,17.50
2019-06-01T05:34:25.758Z,17.49
2019-06-01T05:35:19.056Z,17.50
2019-06-01T05:36:12.384Z,17.48
2019-06-01T05:37:06.312Z,17.52
2019-06-01T05:38:00.407Z,17.51
2019-06-01T05:38:53.547Z,17.45
2019-06-01T05:39:48.369Z,17.47
2019-06-01T05:40:42.563Z,17.47
2019-06-01T05:41:36.980Z,17.69
2019-06-01T05:42:30.309Z,17.79
2019-06-01T05:43:24.734Z,17.77
2019-06-01T05:44:19.226Z,17.78
2019-06-01T05:45:15.127Z,17.75
2019-06-01T05:46:09.879Z,17.71
2019-06-01T05:47:03.832Z,17.69
2019-06-01T05:47:57.389Z,17.81
2019-06-01T05:48:51.933Z,17.76
2019-06-01T05:49:45.544Z,17.76
2019-06-01T05:50:39.824Z,17.74
2019-06-01T05:51:34.054Z,17.65
2019-06-01T05:52:28.629Z,17.77
2019-06-01T05:53:23.094Z,17.79
2019-06-01T05:54:18.753Z,17.94
2019-06-01T05:56:06.854Z,18.10
2019-06-01T05:57:01.143Z,18.00
2019-06-01T05:57:55.294Z,18.07
2019-06-01T05:58:48.913Z,18.14
2019-06-01T05:59:42.938Z,18.14
2019-06-01T06:00:42.046Z,18.25
2019-06-01T06:01:36.327Z,18.15
2019-06-01T06:02:31.039Z,18.29
2019-06-01T06:03:39.542Z,18.31
2019-06-01T06:04:21.623Z,18.34
2019-06-01T06:05:16.642Z,18.27
2019-06-01T06:06:11.680Z,18.17
2019-06-01T06:07:06.190Z,18.18
2019-06-01T06:08:00.343Z,18.21
2019-06-01T06:08:54.147Z,18.21
2019-06-01T06:09:48.506Z,18.23
2019-06-01T06:10:42.382Z,18.29
2019-06-01T06:11:36.366Z,18.33
2019-06-01T06:12:30.609Z,18.52
2019-06-01T06:13:25.119Z,18.45
2019-06-01T06:14:21.007Z,18.52
2019-06-01T06:15:15.709Z,18.59
2019-06-01T06:16:11.573Z,18.63
2019-06-01T06:17:05.603Z,18.54
2019-06-01T06:17:59.545Z,18.54
2019-06-01T06:18:53.383Z,18.68
2019-06-01T06:19:47.860Z,18.72
2019-06-01T06:20:41.671Z,18.79
2019-06-01T06:21:36.260Z,18.91
2019-06-01T06:22:30.487Z,18.91
2019-06-01T06:23:24.449Z,18.78
2019-06-01T06:24:18.904Z,18.78
2019-06-01T06:25:14.259Z,18.73
2019-06-01T06:26:08.614Z,18.86
2019-06-01T06:27:03.553Z,18.95
2019-06-01T06:27:57.785Z,18.94
2019-06-01T06:28:52.110Z,19.00
2019-06-01T06:29:46.239Z,19.09
2019-06-01T06:30:41.378Z,19.29
2019-06-01T06:31:35.383Z,19.40
2019-06-01T06:32:29.769Z,19.30
2019-06-01T06:33:24.114Z,19.25
2019-06-01T06:34:19.613Z,19.37
2019-06-01T06:35:13.939Z,19.42
2019-06-01T06:36:08.104Z,19.42
2019-06-01T06:37:02.456Z,19.44
2019-06-01T06:37:56.975Z,19.40
2019-06-01T06:38:51.194Z,19.43
2019-06-01T06:39:45.845Z,19.53
2019-06-01T06:40:39.750Z,19.51
2019-06-01T06:41:33.872Z,19.64
2019-06-01T06:42:28.371Z,19.66
2019-06-01T06:43:30.997Z,19.54
2019-06-01T06:44:18.532Z,19.56
2019-06-01T06:45:12.926Z,19.70
2019-06-01T06:46:06.890Z,19.82
2019-06-01T06:47:01.551Z,19.91
2019-06-01T06:47:56.799Z,19.79
2019-06-01T06:48:51.208Z,19.86
2019-06-01T06:49:45.215Z,19.93
2019-06-01T06:50:39.246Z,19.91
2019-06-01T06:51:33.468Z,19.93
2019-06-01T06:52:28.060Z,19.71
2019-06-01T06:53:28.447Z,19.66
2019-06-01T06:54:17.946Z,19.85
2019-06-01T06:55:13.013Z,19.90
2019-06-01T06:56:07.426Z,19.96
2019-06-01T06:57:01.555Z,19.96
2019-06-01T06:57:55.863Z,20.09
2019-06-01T06:58:50.476Z,19.92
2019-06-01T06:59:44.552Z,19.88
2019-06-01T07:00:38.901Z,19.88
2019-06-01T07:01:33.003Z,19.93
2019-06-01T07:02:27.488Z,20.03
2019-06-01T07:03:23.087Z,19.96
2019-06-01T07:04:19.289Z,20.29
2019-06-01T07:05:14.244Z,20.39
2019-06-01T07:06:07.837Z,20.38
2019-06-01T07:07:01.579Z,20.41
2019-06-01T07:07:55.778Z,20.69
2019-06-01T07:08:49.594Z,20.61
2019-06-01T07:09:43.969Z,20.66
2019-06-01T07:10:38.009Z,20.61
2019-06-01T07:11:32.063Z,20.69
2019-06-01T07:12:26.390Z,20.86
2019-06-01T07:13:21.537Z,20.88
2019-06-01T07:14:15.361Z,20.72
2019-06-01T07:15:09.820Z,20.81
2019-06-01T07:16:04.138Z,20.78
2019-06-01T07:16:58.070Z,20.82
2019-06-01T07:17:52.456Z,20.80
2019-06-01T07:18:47.220Z,20.79
2019-06-01T07:19:41.986Z,20.83
2019-06-01T07:20:35.776Z,20.85
2019-06-01T07:21:29.840Z,20.97
2019-06-01T07:22:24.059Z,20.87
2019-06-01T07:23:19.560Z,20.75
2019-06-01T07:24:13.876Z,20.89
2019-06-01T07:25:09.770Z,20.95
2019-06-01T07:26:03.614Z,20.93
2019-06-01T07:26:57.948Z,21.08
2019-06-01T07:27:52.013Z,21.06
2019-06-01T07:28:46.585Z,21.02
2019-06-01T07:29:40.647Z,20.93
2019-06-01T07:30:49.728Z,21.00
2019-06-01T07:31:32.509Z,21.19
2019-06-01T07:32:26.775Z,21.31
2019-06-01T07:33:22.395Z,21.31
2019-06-01T07:34:32.122Z,21.24
2019-06-01T07:35:12.750Z,21.17
2019-06-01T07:36:06.905Z,21.38
2019-06-01T07:37:00.982Z,21.42
2019-06-01T07:37:55.706Z,21.31
2019-06-01T07:38:49.248Z,21.27
2019-06-01T07:39:44.206Z,21.00
2019-06-01T07:40:38.323Z,20.90
2019-06-01T07:41:33.047Z,21.15
2019-06-01T07:42:28.192Z,21.34
2019-06-01T07:43:24.726Z,21.50
2019-06-01T07:44:18.755Z,21.42
2019-06-01T07:45:13.475Z,21.40
2019-06-01T07:46:07.682Z,21.61
2019-06-01T07:47:01.855Z,21.65
2019-06-01T07:47:56.575Z,21.47
2019-06-01T07:48:51.348Z,21.52
2019-06-01T07:49:45.415Z,21.60
2019-06-01T07:50:40.074Z,21.52
2019-06-01T07:51:34.307Z,21.44
2019-06-01T07:52:28.551Z,21.52
2019-06-01T07:53:24.089Z,21.69
2019-06-01T07:54:18.039Z,21.71
2019-06-01T07:55:12.957Z,21.61
2019-06-01T07:56:06.790Z,21.57
2019-06-01T07:57:00.858Z,21.61
2019-06-01T07:57:55.806Z,21.64
2019-06-01T07:58:49.890Z,21.66
2019-06-01T07:59:43.788Z,21.63
2019-06-01T08:00:37.772Z,21.71
2019-06-01T08:01:32.869Z,21.73
2019-06-01T08:02:29.450Z,21.78
2019-06-01T08:03:26.546Z,21.78
2019-06-01T08:04:19.357Z,21.81
2019-06-01T08:05:13.644Z,22.05
2019-06-01T08:06:07.517Z,22.12
2019-06-01T08:07:01.745Z,22.12
2019-06-01T08:07:55.591Z,22.10
2019-06-01T08:08:49.334Z,22.28
2019-06-01T08:09:43.371Z,22.33
2019-06-01T08:10:37.498Z,21.98
2019-06-01T08:11:34.623Z,21.98
2019-06-01T08:12:27.531Z,22.06
2019-06-01T08:13:21.941Z,22.01
2019-06-01T08:14:16.108Z,22.04
2019-06-01T08:15:10.519Z,22.16
2019-06-01T08:16:04.471Z,22.24
2019-06-01T08:16:58.637Z,22.39
2019-06-01T08:17:53.136Z,22.47
2019-06-01T08:18:47.631Z,22.40
2019-06-01T08:19:41.980Z,22.51
2019-06-01T08:20:36.287Z,22.64
2019-06-01T08:21:30.351Z,22.77
2019-06-01T08:22:25.899Z,22.69
2019-06-01T08:23:20.420Z,22.69
2019-06-01T08:24:14.610Z,22.73
2019-06-01T08:25:08.864Z,22.79
2019-06-01T08:26:02.893Z,22.49
2019-06-01T08:26:57.003Z,22.80
2019-06-01T08:27:51.263Z,22.92
2019-06-01T08:28:45.556Z,22.90
2019-06-01T08:29:39.981Z,22.92
2019-06-01T08:30:34.318Z,22.92
2019-06-01T08:31:28.896Z,23.06
2019-06-01T08:32:24.561Z,23.04
2019-06-01T08:33:18.961Z,23.12
2019-06-01T08:34:13.653Z,23.02
2019-06-01T08:35:09.740Z,22.78
2019-06-01T08:36:03.886Z,22.78
2019-06-01T08:36:58.065Z,22.59
2019-06-01T08:37:52.471Z,22.53
2019-06-01T08:38:46.852Z,22.50
2019-06-01T08:39:40.781Z,22.59
2019-06-01T08:40:35.106Z,22.65
2019-06-01T08:41:29.903Z,22.84
2019-06-01T08:42:25.261Z,22.94
2019-06-01T08:43:19.720Z,22.95
2019-06-01T08:44:14.078Z,23.09
2019-06-01T08:45:08.508Z,22.97
2019-06-01T08:46:03.184Z,22.71
2019-06-01T08:46:57.311Z,22.85
2019-06-01T08:47:51.751Z,22.91
2019-06-01T08:48:45.861Z,23.05
2019-06-01T08:49:40.719Z,23.08
2019-06-01T08:50:34.826Z,22.84
2019-06-01T08:51:29.933Z,22.85
2019-06-01T08:52:24.447Z,22.94
2019-06-01T08:53:19.995Z,23.01
2019-06-01T08:54:13.918Z,23.07
2019-06-01T08:55:08.635Z,23.18
2019-06-01T08:56:02.731Z,23.20
2019-06-01T08:56:56.554Z,23.15
2019-06-01T08:57:51.024Z,23.10
2019-06-01T08:58:45.213Z,23.21
2019-06-01T08:59:39.713Z,23.16
2019-06-01T09:00:34.746Z,23.08
2019-06-01T09:01:30.526Z,23.12
2019-06-01T09:02:26.497Z,23.16
2019-06-01T09:03:21.501Z,23.12
2019-06-01T09:04:15.323Z,23.24
2019-06-01T09:05:23.261Z,23.26
2019-06-01T09:06:05.648Z,23.28
2019-06-01T09:07:00.091Z,23.30
2019-06-01T09:07:55.160Z,23.36
2019-06-01T09:08:49.339Z,23.46
2019-06-01T09:09:43.727Z,23.37
2019-06-01T09:10:38.022Z,23.17
2019-06-01T09:11:31.472Z,23.23
2019-06-01T09:12:25.421Z,23.27
2019-06-01T09:13:19.192Z,23.51
2019-06-01T09:14:13.429Z,23.50
2019-06-01T09:15:08.006Z,23.59
2019-06-01T09:16:02.728Z,23.54
2019-06-01T09:16:56.941Z,23.59
2019-06-01T09:17:51.020Z,23.58
2019-06-01T09:18:45.579Z,23.64
2019-06-01T09:19:39.566Z,23.64
2019-06-01T09:20:36.957Z,23.68
2019-06-01T09:21:29.510Z,23.86
2019-06-01T09:22:23.681Z,23.86
2019-06-01T09:23:18.763Z,23.90
2019-06-01T09:24:12.422Z,23.90
2019-06-01T09:25:06.863Z,23.77
2019-06-01T09:26:01.102Z,23.65
2019-06-01T09:26:55.498Z,23.75
2019-06-01T09:27:50.035Z,23.91
2019-06-01T09:28:44.792Z,23.98
2019-06-01T09:29:39.935Z,23.93
2019-06-01T09:30:34.453Z,23.90
2019-06-01T09:31:30.238Z,23.99
2019-06-01T09:32:25.998Z,23.92
2019-06-01T09:33:19.995Z,23.86
2019-06-01T09:34:14.195Z,24.13
2019-06-01T09:35:09.454Z,24.16
2019-06-01T09:36:03.404Z,24.18
2019-06-01T09:36:57.740Z,24.15
2019-06-01T09:37:52.425Z,24.10
2019-06-01T09:38:46.369Z,24.16
2019-06-01T09:39:40.366Z,24.13
2019-06-01T09:40:35.096Z,23.96
2019-06-01T09:41:30.401Z,23.82
2019-06-01T09:42:24.549Z,23.77
2019-06-01T09:43:19.016Z,23.76
2019-06-01T09:44:12.903Z,23.88
2019-06-01T09:45:07.265Z,24.07
2019-06-01T09:46:01.310Z,24.00
2019-06-01T09:46:55.035Z,24.02
2019-06-01T09:47:49.244Z,24.08
2019-06-01T09:48:43.776Z,24.07
2019-06-01T09:49:38.068Z,24.16
2019-06-01T09:50:33.438Z,24.34
2019-06-01T09:51:27.634Z,24.38
2019-06-01T09:52:21.398Z,24.22
2019-06-01T09:53:15.281Z,24.36
2019-06-01T09:54:09.873Z,24.34
2019-06-01T09:55:04.410Z,24.40
2019-06-01T09:55:58.708Z,24.15
2019-06-01T09:56:52.546Z,24.15
2019-06-01T09:57:47.024Z,24.25
2019-06-01T09:58:41.674Z,24.15
2019-06-01T09:59:36.098Z,24.14
2019-06-01T10:00:30.368Z,24.18
2019-06-01T10:01:24.661Z,24.26
2019-06-01T10:02:18.653Z,24.26
2019-06-01T10:03:13.458Z,24.18
2019-06-01T10:04:09.320Z,24.46
2019-06-01T10:05:03.191Z,24.56
2019-06-01T10:06:01.714Z,24.53
2019-06-01T10:06:53.268Z,24.38
2019-06-01T10:08:18.133Z,24.77
2019-06-01T10:09:13.197Z,24.66
2019-06-01T10:10:07.350Z,24.76
2019-06-01T10:11:01.415Z,24.70
2019-06-01T10:11:55.557Z,25.08
2019-06-01T10:12:51.080Z,25.30
2019-06-01T10:13:45.023Z,24.92
2019-06-01T10:14:39.554Z,24.97
2019-06-01T10:15:34.347Z,25.00
2019-06-01T10:16:30.406Z,25.25
2019-06-01T10:17:25.390Z,25.29
2019-06-01T10:18:19.715Z,25.32
2019-06-01T10:19:13.085Z,25.18
2019-06-01T10:20:07.183Z,25.10
2019-06-01T10:21:01.467Z,25.02
2019-06-01T10:21:55.576Z,25.07
2019-06-01T10:22:50.242Z,25.19
2019-06-01T10:23:48.967Z,25.27
2019-06-01T10:24:41.341Z,25.40
2019-06-01T10:25:36.466Z,25.44
2019-06-01T10:26:31.325Z,25.41
2019-06-01T10:27:26.034Z,25.61
2019-06-01T10:28:19.900Z,25.38
2019-06-01T10:29:13.733Z,25.21
2019-06-01T10:30:09.102Z,25.12
2019-06-01T10:31:03.467Z,25.25
2019-06-01T10:31:57.725Z,25.45
2019-06-01T10:32:52.087Z,25.53
2019-06-01T10:33:46.037Z,25.55
2019-06-01T10:34:40.193Z,25.55
2019-06-01T10:35:34.933Z,25.48
2019-06-01T10:36:29.674Z,25.37
2019-06-01T10:37:23.857Z,25.27
2019-06-01T10:38:18.776Z,25.38
2019-06-01T10:39:12.944Z,25.60
2019-06-01T10:40:07.774Z,25.72
2019-06-01T10:41:02.409Z,25.78
2019-06-01T10:41:57.162Z,25.84
2019-06-01T10:42:54.669Z,25.88
2019-06-01T10:43:49.056Z,25.87
2019-06-01T10:44:45.674Z,25.87
2019-06-01T10:45:39.853Z,25.66
2019-06-01T10:46:33.990Z,25.66
2019-06-01T10:47:28.077Z,25.57
2019-06-01T10:48:22.397Z,25.55
2019-06-01T10:49:16.514Z,25.75
2019-06-01T10:50:10.259Z,25.77
2019-06-01T10:51:05.372Z,25.87
2019-06-01T10:51:59.111Z,25.73
2019-06-01T10:52:53.034Z,25.96
2019-06-01T10:53:46.892Z,26.38
2019-06-01T10:54:42.437Z,26.55
2019-06-01T10:55:36.466Z,26.72
2019-06-01T10:56:32.319Z,26.86
2019-06-01T10:57:27.248Z,26.82
2019-06-01T10:58:21.245Z,26.95
2019-06-01T10:59:14.547Z,26.92
2019-06-01T11:00:09.282Z,26.97
2019-06-01T11:01:03.383Z,27.16
2019-06-01T11:01:57.853Z,27.21
2019-06-01T11:02:52.320Z,27.27
2019-06-01T11:03:46.667Z,27.32
2019-06-01T11:04:41.143Z,27.61
2019-06-01T11:05:36.651Z,27.83
2019-06-01T11:06:38.856Z,27.61
2019-06-01T11:07:26.649Z,27.54
2019-06-01T11:08:20.699Z,27.03
2019-06-01T11:09:14.900Z,26.86
2019-06-01T11:10:10.430Z,26.46
2019-06-01T11:11:05.207Z,26.35
2019-06-01T11:11:59.530Z,26.36
2019-06-01T11:12:54.403Z,26.69
2019-06-01T11:13:49.389Z,26.93
2019-06-01T11:14:43.459Z,27.09
2019-06-01T11:15:37.527Z,27.21
2019-06-01T11:16:31.364Z,27.43
2019-06-01T11:17:25.630Z,27.44
2019-06-01T11:18:20.281Z,27.71
2019-06-01T11:19:14.592Z,27.75
2019-06-01T11:20:08.609Z,27.46
2019-06-01T11:21:03.809Z,27.55
2019-06-01T11:21:57.554Z,27.73
2019-06-01T11:22:51.911Z,28.01
2019-06-01T11:23:46.625Z,28.23
2019-06-01T11:24:41.693Z,28.30
2019-06-01T11:25:35.706Z,28.37
2019-06-01T11:26:29.972Z,28.64
2019-06-01T11:27:24.219Z,28.37
2019-06-01T11:28:18.569Z,28.63
2019-06-01T11:29:13.081Z,28.84
2019-06-01T11:30:09.746Z,29.03
2019-06-01T11:31:03.289Z,29.33
2019-06-01T11:31:57.940Z,29.22
2019-06-01T11:32:52.500Z,29.04
2019-06-01T11:33:47.296Z,28.91
2019-06-01T11:34:42.472Z,28.97
2019-06-01T11:35:37.213Z,29.19
2019-06-01T11:36:31.636Z,29.33
2019-06-01T11:37:25.892Z,29.72
2019-06-01T11:38:20.146Z,29.43
2019-06-01T11:39:14.825Z,29.03
2019-06-01T11:40:09.421Z,28.76
2019-06-01T11:41:03.673Z,28.23
2019-06-01T11:41:58.123Z,28.44
2019-06-01T11:42:51.841Z,28.47